Time;durP1;ratioP1;P1;durP2;ratioP2;P2;SDS_P1;SDS_P2;PMS_P1;PMS_P2;Temp;Humidity;BMP_temperature;BMP_pressure;BME280_temperature;BME280_humidity;BME280_pressure;Samples;Min_cycle;Max_cycle;Signal;HPM_P1;HPM_P2
2021/04/04 00:00:31;;;;;;;4.80;2.17;;;9.10;48.70;;;;;;5054377;28;20021;-80
2021/04/04 00:02:57;;;;;;;9.20;2.17;;;9.00;48.90;;;;;;5051934;28;20435;-80
2021/04/04 00:05:23;;;;;;;7.35;2.20;;;9.00;49.10;;;;;;5050431;28;20094;-79
2021/04/04 00:07:49;;;;;;;9.07;2.28;;;8.90;49.10;;;;;;5052549;28;20474;-79
2021/04/04 00:10:15;;;;;;;5.28;2.25;;;8.90;49.00;;;;;;5053237;28;20025;-80
2021/04/04 00:12:42;;;;;;;5.03;2.20;;;8.80;49.10;;;;;;5070296;28;20024;-79
2021/04/04 00:15:10;;;;;;;6.35;2.35;;;8.70;49.50;;;;;;5071632;28;20020;-79
2021/04/04 00:17:36;;;;;;;6.80;2.65;;;8.70;49.70;;;;;;5067783;28;20024;-80
2021/04/04 00:20:08;;;;;;;9.48;2.67;;;8.60;50.00;;;;;;5071860;28;20088;-79
2021/04/04 00:22:34;;;;;;;7.72;2.67;;;8.60;50.10;;;;;;5055136;28;20028;-79
2021/04/04 00:24:59;;;;;;;6.43;2.53;;;8.50;50.20;;;;;;5061417;28;20366;-79
2021/04/04 00:27:25;;;;;;;4.50;2.80;;;8.50;50.20;;;;;;5074344;28;20071;-80
2021/04/04 00:29:51;;;;;;;6.68;2.80;;;8.50;50.40;;;;;;5072099;28;20032;-79
2021/04/04 00:32:17;;;;;;;9.60;2.53;;;8.50;50.60;;;;;;5071231;28;20029;-80
2021/04/04 00:34:43;;;;;;;5.28;2.22;;;8.40;50.70;;;;;;5069740;28;20028;-79
2021/04/04 00:37:09;;;;;;;7.97;2.88;;;8.40;50.70;;;;;;5071928;28;21147;-80
2021/04/04 00:39:34;;;;;;;5.88;2.30;;;8.30;50.60;;;;;;5060351;28;20021;-79
2021/04/04 00:42:00;;;;;;;7.00;2.47;;;8.30;50.70;;;;;;5053747;28;20044;-79
2021/04/04 00:44:26;;;;;;;6.47;2.47;;;8.30;50.80;;;;;;5069065;28;20107;-79
2021/04/04 00:46:53;;;;;;;4.45;2.15;;;8.30;50.80;;;;;;5073013;28;20028;-80
2021/04/04 00:49:19;;;;;;;3.97;2.33;;;8.30;50.80;;;;;;5067595;28;20025;-79
2021/04/04 00:51:44;;;;;;;6.65;2.28;;;8.20;50.60;;;;;;5054662;28;20048;-80
2021/04/04 00:54:10;;;;;;;6.68;2.25;;;8.20;50.50;;;;;;5055785;28;20037;-79
2021/04/04 00:56:37;;;;;;;9.20;2.47;;;8.20;50.30;;;;;;5053508;28;20036;-79
2021/04/04 00:59:03;;;;;;;6.07;2.65;;;8.10;50.30;;;;;;5054432;28;20471;-79
2021/04/04 01:01:31;;;;;;;4.80;2.42;;;8.10;50.50;;;;;;5054593;28;20029;-80
2021/04/04 01:03:57;;;;;;;4.47;2.75;;;8.10;50.60;;;;;;5055139;28;20040;-80
2021/04/04 01:06:23;;;;;;;11.63;2.80;;;8.10;50.70;;;;;;5073662;28;20381;-79
2021/04/04 01:08:49;;;;;;;7.60;2.65;;;8.10;50.80;;;;;;5070799;28;20025;-80
2021/04/04 01:11:21;;;;;;;7.38;2.17;;;8.00;50.60;;;;;;5072072;28;20020;-80
2021/04/04 01:13:55;;;;;;;4.72;2.08;;;8.00;50.60;;;;;;5072945;28;20020;-79
2021/04/04 01:16:37;;;;;;;4.85;2.38;;;8.10;50.80;;;;;;5054344;28;20029;-80
2021/04/04 01:19:21;;;;;;;5.38;2.70;;;8.10;50.80;;;;;;5055545;28;20060;-80
2021/04/04 01:21:49;;;;;;;6.18;2.80;;;8.10;51.00;;;;;;5066376;28;20634;-80
2021/04/04 01:24:21;;;;;;;5.82;2.33;;;8.10;50.80;;;;;;5072746;28;20478;-79
2021/04/04 01:27:01;;;;;;;4.32;2.35;;;8.10;50.60;;;;;;5060024;28;20032;-79
2021/04/04 01:29:28;;;;;;;3.83;1.90;;;8.10;50.60;;;;;;5059130;28;20058;-80
2021/04/04 01:31:55;;;;;;;6.53;2.38;;;8.10;50.50;;;;;;5053334;28;20075;-79
2021/04/04 01:34:23;;;;;;;5.57;2.25;;;8.20;50.70;;;;;;5052878;28;20025;-79
2021/04/04 01:36:53;;;;;;;7.68;2.53;;;8.20;50.80;;;;;;5066616;28;20040;-79
2021/04/04 01:39:22;;;;;;;6.97;2.90;;;8.20;50.80;;;;;;5052427;28;20078;-79
2021/04/04 01:41:50;;;;;;;4.22;2.30;;;8.10;50.60;;;;;;5072469;28;20113;-80
2021/04/04 01:44:19;;;;;;;5.10;2.35;;;8.20;50.50;;;;;;5057193;28;20029;-80
2021/04/04 01:46:49;;;;;;;7.50;2.70;;;8.10;50.40;;;;;;5054463;28;20057;-79
2021/04/04 01:49:16;;;;;;;6.47;2.47;;;8.10;50.40;;;;;;5069868;28;20112;-79
2021/04/04 01:51:44;;;;;;;6.35;2.47;;;8.10;50.40;;;;;;5072153;28;20055;-79
2021/04/04 01:54:11;;;;;;;6.13;2.70;;;8.00;50.70;;;;;;5053914;28;20029;-80
2021/04/04 01:56:38;;;;;;;4.50;2.00;;;8.00;51.00;;;;;;5053263;28;20047;-79
2021/04/04 01:59:05;;;;;;;6.35;2.50;;;8.00;50.90;;;;;;5053035;28;20028;-79
2021/04/04 02:01:31;;;;;;;5.38;2.78;;;7.90;50.90;;;;;;5053742;28;20036;-80
2021/04/04 02:04:00;;;;;;;7.90;2.80;;;7.80;51.10;;;;;;5065966;28;20465;-79
2021/04/04 02:06:26;;;;;;;7.78;2.78;;;7.80;51.30;;;;;;5068224;28;20028;-80
2021/04/04 02:08:53;;;;;;;6.35;2.65;;;7.70;51.50;;;;;;5068666;28;20025;-79
2021/04/04 02:11:25;;;;;;;5.80;2.72;;;7.70;52.00;;;;;;5072704;28;20103;-79
2021/04/04 02:13:52;;;;;;;8.82;2.90;;;7.60;52.10;;;;;;5059787;28;20036;-79
2021/04/04 02:16:19;;;;;;;5.32;2.95;;;7.60;52.10;;;;;;5053886;28;20029;-79
2021/04/04 02:18:46;;;;;;;5.97;2.45;;;7.60;52.30;;;;;;5067653;28;20052;-79
2021/04/04 02:21:13;;;;;;;5.28;2.35;;;7.50;52.10;;;;;;5069215;28;20091;-79
2021/04/04 02:23:41;;;;;;;10.63;3.35;;;7.50;52.10;;;;;;5060233;28;20355;-79
2021/04/04 02:26:07;;;;;;;8.85;3.58;;;7.40;52.10;;;;;;5052337;28;20029;-80
2021/04/04 02:28:33;;;;;;;6.40;2.50;;;7.40;52.50;;;;;;5069379;28;20103;-79
2021/04/04 02:30:59;;;;;;;7.20;2.60;;;7.40;52.40;;;;;;5060250;28;20021;-79
2021/04/04 02:33:40;;;;;;;7.35;2.40;;;7.30;52.40;;;;;;5067833;28;20029;-79
2021/04/04 02:36:10;;;;;;;8.55;2.70;;;7.30;52.50;;;;;;5072387;28;20024;-79
2021/04/04 02:38:42;;;;;;;4.40;2.22;;;7.30;52.50;;;;;;5053543;28;20037;-79
2021/04/04 02:41:10;;;;;;;4.93;2.30;;;7.20;52.40;;;;;;5053481;28;20032;-80
2021/04/04 02:43:38;;;;;;;5.68;2.25;;;7.20;52.30;;;;;;5052697;28;20033;-79
2021/04/04 02:46:08;;;;;;;4.63;2.03;;;7.10;52.00;;;;;;5053234;28;20017;-79
2021/04/04 02:48:43;;;;;;;4.38;1.77;;;7.10;52.00;;;;;;5053409;28;20013;-79
2021/04/04 02:51:12;;;;;;;3.60;2.05;;;7.00;51.90;;;;;;5059019;28;20040;-79
2021/04/04 02:53:42;;;;;;;5.55;2.20;;;7.00;51.80;;;;;;5066801;28;20036;-79
2021/04/04 02:56:11;;;;;;;9.07;2.25;;;7.00;51.80;;;;;;5054650;28;20079;-79
2021/04/04 02:58:39;;;;;;;4.65;1.80;;;6.90;51.70;;;;;;5073422;28;20032;-79
2021/04/04 03:01:07;;;;;;;5.20;2.42;;;6.90;51.70;;;;;;5071805;28;20496;-79
2021/04/04 03:03:34;;;;;;;3.65;2.22;;;6.90;52.00;;;;;;5071111;28;20028;-79
2021/04/04 03:06:04;;;;;;;4.00;2.08;;;6.80;52.10;;;;;;5072727;28;20112;-80
2021/04/04 03:08:30;;;;;;;6.35;2.60;;;6.80;52.30;;;;;;5065244;28;20049;-79
2021/04/04 03:10:58;;;;;;;4.35;2.22;;;6.80;52.40;;;;;;5060405;28;20074;-79
2021/04/04 03:13:24;;;;;;;7.00;2.17;;;6.70;52.60;;;;;;5071455;28;20017;-79
2021/04/04 03:15:51;;;;;;;5.85;2.60;;;6.70;52.90;;;;;;5071977;28;20032;-79
2021/04/04 03:18:22;;;;;;;2.90;1.83;;;6.70;53.00;;;;;;5063145;28;20025;-80
2021/04/04 03:20:50;;;;;;;4.28;1.90;;;6.70;52.90;;;;;;5053278;28;20025;-80
2021/04/04 03:23:17;;;;;;;3.47;2.10;;;6.70;53.00;;;;;;5052875;28;20032;-79
2021/04/04 03:25:45;;;;;;;5.60;2.38;;;6.60;53.00;;;;;;5051630;28;20430;-79
2021/04/04 03:28:13;;;;;;;5.13;1.90;;;6.60;52.90;;;;;;5053975;28;20032;-79
2021/04/04 03:30:45;;;;;;;6.40;2.33;;;6.60;53.50;;;;;;5052974;28;20027;-79
2021/04/04 03:33:19;;;;;;;2.90;1.80;;;6.60;53.20;;;;;;5052898;28;20025;-79
2021/04/04 03:35:47;;;;;;;3.47;1.58;;;6.50;52.90;;;;;;5051688;28;20104;-79
2021/04/04 03:38:15;;;;;;;2.85;1.80;;;6.50;52.60;;;;;;5051676;28;20494;-79
2021/04/04 03:40:41;;;;;;;3.80;1.98;;;6.50;52.50;;;;;;5051491;28;20026;-80
2021/04/04 03:43:29;;;;;;;4.53;1.70;;;6.40;52.30;;;;;;5053811;28;20381;-80
2021/04/04 03:46:01;;;;;;;3.60;1.40;;;6.40;52.40;;;;;;5051179;28;20025;-80
2021/04/04 03:48:29;;;;;;;3.35;1.63;;;6.30;52.20;;;;;;5051481;28;20055;-79
2021/04/04 03:50:57;;;;;;;4.40;1.80;;;6.30;52.10;;;;;;5052711;28;20068;-79
2021/04/04 03:53:26;;;;;;;3.97;2.13;;;6.20;52.20;;;;;;5057019;28;20574;-80
2021/04/04 03:55:55;;;;;;;5.22;2.10;;;6.20;52.30;;;;;;5056229;28;20029;-80
2021/04/04 03:58:23;;;;;;;3.15;1.60;;;6.10;52.30;;;;;;5061114;28;20016;-79
2021/04/04 04:00:52;;;;;;;6.07;2.55;;;6.10;52.30;;;;;;5056317;28;20032;-79
2021/04/04 04:03:20;;;;;;;3.03;1.60;;;6.00;52.60;;;;;;5067391;28;20512;-79
2021/04/04 04:05:49;;;;;;;6.13;2.40;;;6.00;52.70;;;;;;5076178;28;20017;-80
2021/04/04 04:08:19;;;;;;;6.07;2.38;;;6.00;52.90;;;;;;5074773;28;20046;-80
2021/04/04 04:10:47;;;;;;;3.30;1.98;;;6.00;52.80;;;;;;5056301;28;20057;-79
2021/04/04 04:13:14;;;;;;;5.50;2.38;;;5.90;52.60;;;;;;5057280;28;20029;-80
2021/04/04 04:15:40;;;;;;;5.88;2.28;;;5.90;52.80;;;;;;5056218;28;20023;-79
2021/04/04 04:18:08;;;;;;;4.57;2.10;;;5.90;52.90;;;;;;5066453;28;20033;-79
2021/04/04 04:20:36;;;;;;;8.75;2.30;;;5.80;52.90;;;;;;5073348;28;20389;-80
2021/04/04 04:23:06;;;;;;;4.97;2.15;;;5.90;53.20;;;;;;5062715;28;20092;-80
2021/04/04 04:25:32;;;;;;;5.65;2.10;;;5.80;53.50;;;;;;5074810;28;20565;-80
2021/04/04 04:27:59;;;;;;;5.15;2.50;;;5.80;53.50;;;;;;5061901;28;20078;-80
2021/04/04 04:30:25;;;;;;;3.17;1.45;;;5.80;53.40;;;;;;5055891;28;20029;-79
2021/04/04 04:32:59;;;;;;;4.55;2.13;;;5.80;53.30;;;;;;5066873;28;20020;-79
2021/04/04 04:35:26;;;;;;;3.55;1.65;;;5.70;53.30;;;;;;5075809;28;20020;-80
2021/04/04 04:37:53;;;;;;;4.38;1.80;;;5.70;53.10;;;;;;5063256;28;20498;-80
2021/04/04 04:40:20;;;;;;;3.15;1.70;;;5.70;53.20;;;;;;5054398;28;20390;-79
2021/04/04 04:42:49;;;;;;;4.03;2.00;;;5.70;53.30;;;;;;5063514;28;20114;-80
2021/04/04 04:45:28;;;;;;;4.75;2.25;;;5.60;53.30;;;;;;5074405;28;20036;-80
2021/04/04 04:47:55;;;;;;;5.15;1.75;;;5.60;53.30;;;;;;5062908;28;20112;-80
2021/04/04 04:50:22;;;;;;;3.22;1.80;;;5.60;54.00;;;;;;5057052;28;20040;-79
2021/04/04 04:52:48;;;;;;;3.47;1.88;;;5.60;53.60;;;;;;5072753;28;20028;-80
2021/04/04 04:55:14;;;;;;;7.50;2.47;;;5.50;53.70;;;;;;5055958;28;20116;-80
2021/04/04 04:57:40;;;;;;;4.90;2.60;;;5.50;54.10;;;;;;5055479;28;20517;-80
2021/04/04 05:00:10;;;;;;;3.45;1.60;;;5.50;54.20;;;;;;5071619;28;20111;-79
2021/04/04 05:02:37;;;;;;;6.10;1.90;;;5.50;54.30;;;;;;5070284;28;20032;-80
2021/04/04 05:05:06;;;;;;;7.20;2.53;;;5.50;54.30;;;;;;5055030;28;20028;-79
2021/04/04 05:07:40;;;;;;;7.85;2.42;;;5.50;54.70;;;;;;5057312;28;20029;-79
2021/04/04 05:10:10;;;;;;;4.40;2.00;;;5.50;54.90;;;;;;5075156;28;20462;-79
2021/04/04 05:12:45;;;;;;;4.90;1.52;;;5.50;55.20;;;;;;5072216;28;20474;-79
2021/04/04 05:15:11;;;;;;;5.55;2.30;;;5.50;54.60;;;;;;5073934;28;20047;-80
2021/04/04 05:17:38;;;;;;;3.53;1.98;;;5.60;55.00;;;;;;5073104;28;20027;-79
2021/04/04 05:20:06;;;;;;;5.43;2.20;;;5.60;55.00;;;;;;5074877;28;20610;-79
2021/04/04 05:22:33;;;;;;;7.10;2.42;;;5.60;55.00;;;;;;5055292;28;20033;-80
2021/04/04 05:24:59;;;;;;;5.47;2.17;;;5.70;55.10;;;;;;5053565;28;20036;-80
2021/04/04 05:27:25;;;;;;;4.03;2.13;;;5.80;55.20;;;;;;5061982;28;20390;-79
2021/04/04 05:29:51;;;;;;;6.88;2.55;;;5.80;55.20;;;;;;5053703;28;20540;-79
2021/04/04 05:32:18;;;;;;;5.88;2.05;;;5.90;55.40;;;;;;5055566;28;20029;-79
2021/04/04 05:34:43;;;;;;;4.32;1.90;;;5.90;55.40;;;;;;5055986;28;20059;-80
2021/04/04 05:37:09;;;;;;;6.82;2.17;;;5.90;55.20;;;;;;5073557;28;20494;-80
2021/04/04 05:39:38;;;;;;;4.28;2.33;;;6.00;55.20;;;;;;5072092;28;20032;-79
2021/04/04 05:42:07;;;;;;;4.18;1.75;;;6.10;55.20;;;;;;5074121;28;20032;-79
2021/04/04 05:45:00;;;;;;;4.00;1.83;;;6.20;55.10;;;;;;5054268;28;20029;-79
2021/04/04 05:47:45;;;;;;;3.20;1.50;;;6.20;54.90;;;;;;5056305;28;20029;-79
2021/04/04 05:51:04;;;;;;;7.45;2.70;;;6.30;54.80;;;;;;5072930;28;20020;-79
2021/04/04 05:53:38;;;;;;;6.15;2.20;;;6.40;54.70;;;;;;5035588;28;20442;-80
2021/04/04 05:56:22;;;;;;;5.13;1.90;;;6.40;54.70;;;;;;5045174;28;20085;-80
2021/04/04 05:58:57;;;;;;;5.30;2.30;;;6.60;54.60;;;;;;5052345;28;20044;-80
2021/04/04 06:01:29;;;;;;;3.95;1.92;;;6.60;54.50;;;;;;5052163;28;20495;-80
2021/04/04 06:04:31;;;;;;;8.10;2.47;;;6.70;54.50;;;;;;5038533;28;20041;-80
2021/04/04 06:07:00;;;;;;;4.00;2.25;;;6.80;54.40;;;;;;5052023;28;20025;-79
2021/04/04 06:09:47;;;;;;;3.85;2.35;;;6.90;54.20;;;;;;5053501;28;20456;-80
2021/04/04 06:12:18;;;;;;;6.03;2.67;;;6.90;54.10;;;;;;5071760;28;20025;-79
2021/04/04 06:14:52;;;;;;;3.05;1.95;;;7.00;54.10;;;;;;5051967;28;20067;-80
2021/04/04 06:17:39;;;;;;;;;;;7.10;53.90;;;;;;5052299;28;20130;-80
2021/04/04 06:20:13;;;;;;;4.80;2.00;;;7.20;53.70;;;;;;5051810;28;19905;-79
2021/04/04 06:22:49;;;;;;;4.57;2.30;;;7.30;53.50;;;;;;5035249;28;20021;-80
2021/04/04 06:25:41;;;;;;;5.32;2.13;;;7.30;53.20;;;;;;5064213;28;20029;-80
2021/04/04 06:28:16;;;;;;;4.50;2.55;;;7.40;53.10;;;;;;5054779;28;20414;-80
2021/04/04 06:30:55;;;;;;;4.43;2.08;;;7.40;52.90;;;;;;5052298;28;20033;-80
2021/04/04 06:33:28;;;;;;;4.32;2.15;;;7.50;52.80;;;;;;5057560;28;20474;-79
2021/04/04 06:36:08;;;;;;;4.65;2.65;;;7.60;52.70;;;;;;5073495;28;20028;-80
2021/04/04 06:38:50;;;;;;;5.63;2.10;;;7.70;52.50;;;;;;5058912;28;20025;-80
2021/04/04 06:41:47;;;;;;;7.72;2.20;;;7.70;52.30;;;;;;5052202;28;20025;-80
2021/04/04 06:44:39;;;;;;;6.63;2.15;;;7.80;52.20;;;;;;5069651;28;20020;-79
2021/04/04 06:47:22;;;;;;;5.47;2.30;;;7.90;52.00;;;;;;5072887;28;20493;-79
2021/04/04 06:50:09;;;;;;;2.75;1.70;;;8.00;51.70;;;;;;5054697;28;20029;-80
2021/04/04 06:52:58;;;;;;;3.95;2.20;;;8.10;51.60;;;;;;5053209;28;20112;-80
2021/04/04 06:55:29;;;;;;;2.40;1.60;;;8.30;51.60;;;;;;5055712;28;20084;-80
2021/04/04 06:58:20;;;;;;;4.28;2.05;;;8.30;51.80;;;;;;5059365;28;20027;-79
2021/04/04 07:01:05;;;;;;;3.10;1.83;;;8.40;51.40;;;;;;5076936;28;20033;-78
2021/04/04 07:03:43;;;;;;;2.97;1.83;;;8.60;51.10;;;;;;5079956;28;20032;-80
2021/04/04 07:06:18;;;;;;;3.78;1.90;;;8.80;51.00;;;;;;5053185;28;20067;-79
2021/04/04 07:09:07;;;;;;;4.88;2.05;;;8.90;50.00;;;;;;5066798;28;20021;-79
2021/04/04 07:11:55;;;;;;;5.95;2.20;;;9.00;49.50;;;;;;5062525;28;20014;-79
2021/04/04 07:14:30;;;;;;;6.03;2.72;;;9.10;49.00;;;;;;5058788;28;20029;-75
2021/04/04 07:17:34;;;;;;;6.15;4.00;;;9.20;49.30;;;;;;5061411;28;20028;-74
2021/04/04 07:20:18;;;;;;;9.68;4.15;;;9.40;49.40;;;;;;5051511;28;20047;-75
2021/04/04 07:23:19;;;;;;;;;;;9.50;48.70;;;;;;5054517;28;20017;-76
2021/04/04 07:26:04;;;;;;;4.28;2.95;;;9.60;49.40;;;;;;5068821;28;20444;-75
2021/04/04 07:28:32;;;;;;;;;;;9.70;47.00;;;;;;5060694;28;20028;-75
2021/04/04 07:31:00;;;;;;;8.07;3.38;;;9.80;48.20;;;;;;5063059;28;19908;-75
2021/04/04 07:33:42;;;;;;;8.27;4.07;;;9.90;47.70;;;;;;5058049;28;20016;-75
2021/04/04 07:36:27;;;;;;;5.75;3.97;;;10.00;47.70;;;;;;5063041;28;20058;-76
2021/04/04 07:39:28;;;;;;;8.90;4.00;;;10.10;47.10;;;;;;5063187;28;20017;-75
2021/04/04 07:42:07;;;;;;;6.75;3.78;;;10.20;46.80;;;;;;5056935;28;20115;-75
2021/04/04 07:44:51;;;;;;;5.70;3.17;;;10.20;46.40;;;;;;5064171;28;20033;-75
2021/04/04 07:47:38;;;;;;;5.70;3.00;;;10.40;46.60;;;;;;5061429;28;20035;-75
2021/04/04 07:50:08;;;;;;;7.40;3.10;;;10.50;46.60;;;;;;5073357;28;20037;-75
2021/04/04 07:52:48;;;;;;;6.82;2.78;;;10.70;46.10;;;;;;5068222;28;20024;-75
2021/04/04 07:55:19;;;;;;;5.38;3.22;;;10.80;45.30;;;;;;5056401;28;20024;-75
2021/04/04 07:58:13;;;;;;;4.82;3.08;;;10.90;45.30;;;;;;5060689;28;20454;-77
2021/04/04 08:00:48;;;;;;;6.13;2.88;;;11.00;44.90;;;;;;5073795;28;20133;-74
2021/04/04 08:03:21;;;;;;;4.15;2.35;;;11.00;43.50;;;;;;5063914;28;20103;-77
2021/04/04 08:05:50;;;;;;;5.82;2.83;;;11.00;43.30;;;;;;5061546;28;20028;-77
2021/04/04 08:08:54;;;;;;;5.38;2.40;;;10.90;42.70;;;;;;5057033;28;20479;-79
2021/04/04 08:11:46;;;;;;;3.83;1.80;;;10.80;42.40;;;;;;5056275;28;20028;-76
2021/04/04 08:14:20;;;;;;;3.95;2.22;;;10.80;43.20;;;;;;5064219;28;20071;-76
2021/04/04 08:16:58;;;;;;;4.70;2.70;;;10.80;43.10;;;;;;5056315;28;20029;-76
2021/04/04 08:19:25;;;;;;;4.03;2.47;;;10.80;42.50;;;;;;5056070;28;20040;-78
2021/04/04 08:22:01;;;;;;;4.18;2.40;;;10.90;42.40;;;;;;5056057;28;20025;-75
2021/04/04 08:24:51;;;;;;;3.38;1.85;;;10.90;42.30;;;;;;5056132;28;20478;-74
2021/04/04 08:27:46;;;;;;;4.95;2.10;;;11.00;42.50;;;;;;5065090;28;20119;-77
2021/04/04 08:30:17;;;;;;;;;;;11.20;42.50;;;;;;5056086;28;20509;-74
2021/04/04 08:32:54;;;;;;;4.47;1.80;;;11.40;44.00;;;;;;5060416;28;19908;-74
2021/04/04 08:35:34;;;;;;;4.88;1.58;;;11.50;42.30;;;;;;5074447;28;20149;-76
2021/04/04 08:38:17;;;;;;;3.60;1.58;;;11.70;41.90;;;;;;5073885;28;20131;-75
2021/04/04 08:40:44;;;;;;;2.85;1.63;;;11.90;41.30;;;;;;5074329;28;20060;-75
2021/04/04 08:43:12;;;;;;;4.60;1.33;;;12.00;41.20;;;;;;5075277;28;20389;-77
2021/04/04 08:45:59;;;;;;;5.20;2.35;;;12.30;41.00;;;;;;5063618;28;20052;-74
2021/04/04 08:48:27;;;;;;;4.00;1.67;;;12.50;40.60;;;;;;5057653;28;20033;-74
2021/04/04 08:50:57;;;;;;;4.13;2.33;;;12.80;39.40;;;;;;5066535;28;20052;-75
2021/04/04 08:53:31;;;;;;;5.60;2.47;;;12.90;38.50;;;;;;5058680;28;20039;-75
2021/04/04 08:55:58;;;;;;;;;;;13.10;37.40;;;;;;5065154;28;20071;-75
2021/04/04 08:58:31;;;;;;;3.75;1.75;;;13.20;39.80;;;;;;5067495;28;19961;-75
2021/04/04 09:01:05;;;;;;;4.25;1.80;;;13.30;37.30;;;;;;5054399;28;20477;-76
2021/04/04 09:03:36;;;;;;;3.25;1.63;;;13.40;36.70;;;;;;5056219;28;20078;-75
2021/04/04 09:06:04;;;;;;;2.80;1.70;;;13.40;36.90;;;;;;5054941;28;20382;-77
2021/04/04 09:08:31;;;;;;;4.85;2.20;;;13.40;37.00;;;;;;5057818;28;20115;-76
2021/04/04 09:10:59;;;;;;;3.03;1.67;;;13.50;37.40;;;;;;5054697;28;20471;-76
2021/04/04 09:13:29;;;;;;;2.30;1.23;;;13.50;37.00;;;;;;5066338;28;20025;-76
2021/04/04 09:15:57;;;;;;;3.25;1.20;;;13.60;35.60;;;;;;5064365;28;20024;-77
2021/04/04 09:18:25;;;;;;;3.33;1.67;;;13.60;35.00;;;;;;5061898;28;20130;-75
2021/04/04 09:21:04;;;;;;;2.92;1.63;;;13.60;35.20;;;;;;5057395;28;20147;-75
2021/04/04 09:23:32;;;;;;;2.67;1.70;;;13.60;35.60;;;;;;5059877;28;20028;-77
2021/04/04 09:26:03;;;;;;;3.08;1.27;;;13.60;35.20;;;;;;5070250;28;20025;-77
2021/04/04 09:28:31;;;;;;;2.85;1.58;;;13.70;35.30;;;;;;5070641;28;20056;-75
2021/04/04 09:30:59;;;;;;;2.22;1.60;;;13.70;34.70;;;;;;5053264;28;20025;-76
2021/04/04 09:33:33;;;;;;;2.45;1.63;;;13.80;35.00;;;;;;5065395;28;20043;-76
2021/04/04 09:36:05;;;;;;;3.45;1.45;;;13.90;34.90;;;;;;5055246;28;20104;-76
2021/04/04 09:38:39;;;;;;;3.17;1.25;;;13.90;35.10;;;;;;5057780;28;20025;-75
2021/04/04 09:41:06;;;;;;;5.40;1.13;;;14.00;33.80;;;;;;5064569;28;20036;-76
2021/04/04 09:43:57;;;;;;;2.70;1.20;;;14.00;31.90;;;;;;5066250;28;20517;-75
2021/04/04 09:46:23;;;;;;;5.78;1.67;;;14.00;32.20;;;;;;5057131;28;20068;-76
2021/04/04 09:48:48;;;;;;;1.83;1.00;;;14.00;31.50;;;;;;5074272;28;20097;-77
2021/04/04 09:51:16;;;;;;;2.63;1.00;;;14.00;31.40;;;;;;5068740;28;20044;-79
2021/04/04 09:53:50;;;;;;;5.53;1.23;;;14.10;31.70;;;;;;5063064;28;20029;-76
2021/04/04 09:56:27;;;;;;;2.55;1.13;;;14.20;30.70;;;;;;5064933;28;20557;-75
2021/04/04 09:58:55;;;;;;;2.55;1.30;;;14.20;30.30;;;;;;5073158;28;20389;-75
2021/04/04 10:01:24;;;;;;;3.35;1.20;;;14.40;30.20;;;;;;5073549;28;20021;-74
2021/04/04 10:04:07;;;;;;;2.30;1.30;;;14.50;30.30;;;;;;5061857;28;20025;-74
2021/04/04 10:06:34;;;;;;;3.13;1.17;;;14.60;29.80;;;;;;5089726;28;20024;-76
2021/04/04 10:09:03;;;;;;;2.90;1.38;;;14.60;29.30;;;;;;5063959;28;20543;-76
2021/04/04 10:11:31;;;;;;;3.58;1.20;;;14.70;28.80;;;;;;5072180;28;20035;-76
2021/04/04 10:14:11;;;;;;;4.85;1.30;;;14.60;29.00;;;;;;5085757;28;20028;-75
2021/04/04 10:16:37;;;;;;;2.85;1.40;;;14.70;29.40;;;;;;5063449;28;20020;-76
2021/04/04 10:19:08;;;;;;;2.50;1.38;;;14.70;29.10;;;;;;5079990;28;20378;-76
2021/04/04 10:21:55;;;;;;;1.77;1.00;;;14.70;28.70;;;;;;5064388;28;20070;-75
2021/04/04 10:24:27;;;;;;;4.53;1.52;;;14.60;28.50;;;;;;5058817;28;20060;-77
2021/04/04 10:27:25;;;;;;;3.30;1.25;;;14.70;29.10;;;;;;5077365;28;20035;-74
2021/04/04 10:30:16;;;;;;;1.50;1.00;;;14.70;28.90;;;;;;5062590;28;20090;-76
2021/04/04 10:32:47;;;;;;;4.75;1.13;;;14.70;29.00;;;;;;5059285;28;20103;-75
2021/04/04 10:35:27;;;;;;;2.38;1.20;;;14.70;29.10;;;;;;5071957;28;20469;-75
2021/04/04 10:38:08;;;;;;;2.65;1.25;;;14.70;28.60;;;;;;5080953;28;20116;-74
2021/04/04 10:40:43;;;;;;;3.40;1.20;;;14.60;28.50;;;;;;5072957;28;20380;-75
2021/04/04 10:43:10;;;;;;;2.10;1.10;;;14.60;28.80;;;;;;5067408;28;20033;-75
2021/04/04 10:45:36;;;;;;;3.17;1.20;;;14.60;29.00;;;;;;5078410;28;20522;-75
2021/04/04 10:48:07;;;;;;;3.25;1.60;;;14.60;28.90;;;;;;5087956;28;20028;-75
2021/04/04 10:50:34;;;;;;;2.45;1.52;;;14.70;28.90;;;;;;5072463;28;20036;-77
2021/04/04 10:53:00;;;;;;;2.78;1.40;;;14.80;29.00;;;;;;5064245;28;20087;-76
2021/04/04 10:55:27;;;;;;;2.80;1.30;;;14.90;29.10;;;;;;5069871;28;20038;-77
2021/04/04 10:57:57;;;;;;;3.20;1.40;;;15.20;29.00;;;;;;5076202;28;20024;-74
2021/04/04 11:00:23;;;;;;;2.42;1.35;;;15.40;28.60;;;;;;5089455;28;20398;-77
2021/04/04 11:02:49;;;;;;;2.78;1.15;;;15.60;28.60;;;;;;5075207;28;20103;-76
2021/04/04 11:05:16;;;;;;;2.85;1.30;;;15.80;27.90;;;;;;5078180;28;20021;-76
2021/04/04 11:07:42;;;;;;;4.80;1.90;;;15.90;27.60;;;;;;5082802;28;20508;-75
2021/04/04 11:10:10;;;;;;;2.45;1.20;;;16.00;26.90;;;;;;5062384;28;20053;-76
2021/04/04 11:12:38;;;;;;;1.88;1.40;;;16.10;27.10;;;;;;5058363;28;20020;-76
2021/04/04 11:15:09;;;;;;;3.85;1.27;;;16.20;27.10;;;;;;5071173;28;20020;-77
2021/04/04 11:17:35;;;;;;;2.38;1.40;;;16.30;27.10;;;;;;5072137;28;20560;-76
2021/04/04 11:20:05;;;;;;;2.40;1.52;;;16.30;27.00;;;;;;5077071;28;20025;-75
2021/04/04 11:22:33;;;;;;;2.35;1.65;;;16.30;26.40;;;;;;5071654;28;20032;-75
2021/04/04 11:25:17;;;;;;;2.60;1.33;;;16.30;26.20;;;;;;5066512;28;20028;-76
2021/04/04 11:27:48;;;;;;;4.50;1.33;;;16.30;26.30;;;;;;5071924;28;20494;-76
2021/04/04 11:30:29;;;;;;;1.77;1.20;;;16.20;26.40;;;;;;5090355;28;20031;-76
2021/04/04 11:33:19;;;;;;;3.33;1.35;;;16.20;26.20;;;;;;5078404;28;20028;-76
2021/04/04 11:36:13;;;;;;;2.00;1.20;;;16.10;26.40;;;;;;5071279;28;20028;-76
2021/04/04 11:38:49;;;;;;;2.83;1.05;;;15.90;26.60;;;;;;5065375;28;20055;-76
2021/04/04 11:41:19;;;;;;;3.60;1.45;;;15.90;26.80;;;;;;5070102;28;20082;-75
2021/04/04 11:43:50;;;;;;;1.95;1.20;;;15.90;26.70;;;;;;5060750;28;20043;-75
2021/04/04 11:46:51;;;;;;;4.68;1.65;;;15.90;26.60;;;;;;5067196;28;20031;-75
2021/04/04 11:49:38;;;;;;;2.75;1.17;;;15.90;25.60;;;;;;5071332;28;20385;-75
2021/04/04 11:52:10;;;;;;;4.25;1.40;;;16.00;26.40;;;;;;5081743;28;20103;-74
2021/04/04 11:54:44;;;;;;;2.13;1.50;;;16.10;26.70;;;;;;5057943;28;20031;-75
2021/04/04 11:57:30;;;;;;;4.45;1.50;;;16.30;26.30;;;;;;5079064;28;20059;-75
2021/04/04 12:00:03;;;;;;;1.98;1.13;;;16.50;26.10;;;;;;5073973;28;20021;-76
2021/04/04 12:02:31;;;;;;;2.63;1.55;;;16.70;25.80;;;;;;5080606;28;20105;-75
2021/04/04 12:05:08;;;;;;;2.67;1.42;;;16.80;25.20;;;;;;5078660;28;20031;-76
2021/04/04 12:07:45;;;;;;;2.47;1.50;;;16.90;25.70;;;;;;5079932;28;20033;-76
2021/04/04 12:10:18;;;;;;;2.65;1.50;;;16.80;25.00;;;;;;5088769;28;20028;-76
2021/04/04 12:12:44;;;;;;;3.45;1.52;;;16.80;24.80;;;;;;5065233;28;20016;-76
2021/04/04 12:15:12;;;;;;;3.30;1.50;;;16.80;24.90;;;;;;5083443;28;20172;-76
2021/04/04 12:17:44;;;;;;;2.75;1.20;;;16.70;25.00;;;;;;5061309;28;20029;-76
2021/04/04 12:20:10;;;;;;;2.30;1.40;;;16.60;25.40;;;;;;5070355;28;20021;-77
2021/04/04 12:22:42;;;;;;;5.05;1.55;;;16.40;25.20;;;;;;5073137;28;20027;-76
2021/04/04 12:25:29;;;;;;;3.42;1.48;;;16.20;25.20;;;;;;5070664;28;20427;-76
2021/04/04 12:27:57;;;;;;;4.22;1.20;;;16.00;25.50;;;;;;5071775;28;20025;-75
2021/04/04 12:30:25;;;;;;;3.13;1.42;;;16.00;25.90;;;;;;5090315;28;20021;-76
2021/04/04 12:33:08;;;;;;;2.17;1.20;;;15.90;25.90;;;;;;5072194;28;20421;-76
2021/04/04 12:35:42;;;;;;;3.75;1.00;;;15.90;26.00;;;;;;5074317;28;20603;-77
2021/04/04 12:38:19;;;;;;;4.47;1.67;;;15.90;25.80;;;;;;5079645;28;20039;-75
2021/04/04 12:40:45;;;;;;;4.30;1.67;;;15.90;25.80;;;;;;5076340;28;20016;-75
2021/04/04 12:43:11;;;;;;;4.15;2.15;;;16.00;25.70;;;;;;5079719;28;20064;-75
2021/04/04 12:45:38;;;;;;;3.13;1.55;;;16.10;26.30;;;;;;5068987;28;20071;-75
2021/04/04 12:48:15;;;;;;;1.73;1.35;;;16.20;25.50;;;;;;5070437;28;20031;-76
2021/04/04 12:50:48;;;;;;;5.10;1.77;;;16.30;25.70;;;;;;5059959;28;20043;-75
2021/04/04 12:53:41;;;;;;;2.58;1.42;;;16.40;25.50;;;;;;5071121;28;20404;-76
2021/04/04 12:56:06;;;;;;;2.63;1.30;;;16.50;25.30;;;;;;5087296;28;20478;-75
2021/04/04 12:58:38;;;;;;;1.33;0.98;;;16.50;25.30;;;;;;5088712;28;20085;-75
2021/04/04 13:01:04;;;;;;;3.45;1.73;;;16.60;25.40;;;;;;5088256;28;20024;-78
2021/04/04 13:03:32;;;;;;;3.42;1.55;;;16.70;24.60;;;;;;5080477;28;20021;-75
2021/04/04 13:05:58;;;;;;;4.30;1.48;;;16.80;24.50;;;;;;5064255;28;20028;-77
2021/04/04 13:08:30;;;;;;;2.88;1.40;;;16.90;24.50;;;;;;5077542;28;20440;-76
2021/04/04 13:11:09;;;;;;;5.00;1.52;;;17.00;24.00;;;;;;5083083;28;20059;-76
2021/04/04 13:13:43;;;;;;;2.28;1.13;;;17.00;24.10;;;;;;5072293;28;20336;-74
2021/04/04 13:16:12;;;;;;;2.63;1.17;;;17.00;24.20;;;;;;5090636;28;20107;-76
2021/04/04 13:18:46;;;;;;;2.55;1.38;;;16.90;24.50;;;;;;5059680;28;20531;-75
2021/04/04 13:21:26;;;;;;;2.28;1.25;;;16.90;24.70;;;;;;5056574;28;20054;-75